Mississippi River (Missouri), New Madrid (07024175)

StateMissouriLatestUnknown (981000 cfs)
RiverMississippi RiverRatingObservedEstimated
Updated2021-03-03 14:00 (1 hour ago)Flood - The river is flooding. Obstacles can be treacherous or deadly. The river should be avoided at this stage for casual trips and definitely for the inexperienced. Trips should be attempted only with protective gear and equipment.Flood(none)(none)
Discharge981000 cfs (median: 1000000 cfs)High - The river is high and potentially dangerous, especially for the young and / or inexperienced. Normal stream obstacles are sometimes difficult to navigate. Extended distances can be attempted, but canoe travel may not be advisable.High(none)(none)
Height30.6 feetGood - Conditions are ideal for a canoe or kayak. Boats typically will drag on fewer than one-quarter of riffles, if at all, and portages are unnecessary or rare. Normal float lengths can be attempted without a problem.Good(none)(none)
TrendRising (rising over 24 hours)Low - River is low but can still be floated. Some riffles are okay but most come with significant dragging and might need a portage. Float lengths should be reduced to accommodate low flow, dragging, and portages.Low(none)(none)
USGSExternal icon USGS Site (External icon Google Maps)Poor - River is too low to float comfortably. Most or all riffles will drag or must be portaged and some obstacles (such as slick shelf rock) cause undue problems. Avoid the river at this stage for casual paddling trips.Poor(none)(none)

Trending Data

Plot Image

Trips for Mississippi River (Missouri), New Madrid (07024175)

DateStartEndDistanceConditionDischargeHeightFishingDetails

A total of 0 rows are displayed.

Condition Descriptions

Fishing Conditions

Fish Species

Notes

Classic Trip List

The classic River Trips application is still available for use. It is updated with the new system using a data retrofit. It is no longer maintained. The original River Trips application is no longer updated (as of 1 Dec 2016) but can be checked for errors or for the condition of the data before it was converted to the new system.

Gauge Data Table

ObservationHeightDischargeMaximum
Discharge
Minimum
Discharge
Mean
Discharge
P05P10P20P25P50
(Median)
P75P80P90P95
2021-03-03 14:00 30.60 981000 1530000 (2019) 478000 (2017) 1090000 581000 736000 1000000 1480000 1510000
2021-03-03 13:00 30.50 977000 1530000 (2019) 478000 (2017) 1090000 581000 736000 1000000 1480000 1510000
2021-03-03 12:00 30.37 972000 1530000 (2019) 478000 (2017) 1090000 581000 736000 1000000 1480000 1510000
2021-03-03 11:00 30.28 968000 1530000 (2019) 478000 (2017) 1090000 581000 736000 1000000 1480000 1510000
2021-03-03 10:00 30.23 966000 1530000 (2019) 478000 (2017) 1090000 581000 736000 1000000 1480000 1510000
2021-03-03 09:00 30.18 965000 1530000 (2019) 478000 (2017) 1090000 581000 736000 1000000 1480000 1510000
2021-03-03 08:00 30.13 963000 1530000 (2019) 478000 (2017) 1090000 581000 736000 1000000 1480000 1510000
2021-03-03 07:00 30.02 958000 1530000 (2019) 478000 (2017) 1090000 581000 736000 1000000 1480000 1510000
2021-03-03 06:00 29.97 957000 1530000 (2019) 478000 (2017) 1090000 581000 736000 1000000 1480000 1510000
2021-03-03 05:00 29.91 954000 1530000 (2019) 478000 (2017) 1090000 581000 736000 1000000 1480000 1510000
2021-03-03 04:00 29.81 950000 1530000 (2019) 478000 (2017) 1090000 581000 736000 1000000 1480000 1510000
2021-03-03 03:00 29.76 949000 1530000 (2019) 478000 (2017) 1090000 581000 736000 1000000 1480000 1510000
2021-03-03 02:00 29.64 944000 1530000 (2019) 478000 (2017) 1090000 581000 736000 1000000 1480000 1510000
2021-03-03 01:00 29.52 939000 1530000 (2019) 478000 (2017) 1090000 581000 736000 1000000 1480000 1510000
2021-03-03 00:00 29.47 938000 1530000 (2019) 478000 (2017) 1090000 581000 736000 1000000 1480000 1510000
2021-03-02 23:00 29.36 933000 1530000 (2019) 418000 (2017) 1080000 534000 709000 1040000 1470000 1510000
2021-03-02 22:00 29.31 931000 1530000 (2019) 418000 (2017) 1080000 534000 709000 1040000 1470000 1510000
2021-03-02 21:00 29.28 930000 1530000 (2019) 418000 (2017) 1080000 534000 709000 1040000 1470000 1510000
2021-03-02 20:00 29.09 923000 1530000 (2019) 418000 (2017) 1080000 534000 709000 1040000 1470000 1510000
2021-03-02 19:00 29.05 922000 1530000 (2019) 418000 (2017) 1080000 534000 709000 1040000 1470000 1510000
2021-03-02 18:00 28.88 915000 1530000 (2019) 418000 (2017) 1080000 534000 709000 1040000 1470000 1510000
2021-03-02 17:00 28.78 912000 1530000 (2019) 418000 (2017) 1080000 534000 709000 1040000 1470000 1510000
2021-03-02 16:00 28.72 909000 1530000 (2019) 418000 (2017) 1080000 534000 709000 1040000 1470000 1510000
2021-03-02 15:00 28.64 906000 1530000 (2019) 418000 (2017) 1080000 534000 709000 1040000 1470000 1510000
2021-03-02 14:00 28.50 901000 1530000 (2019) 418000 (2017) 1080000 534000 709000 1040000 1470000 1510000
2021-03-02 13:00 28.37 896000 1530000 (2019) 418000 (2017) 1080000 534000 709000 1040000 1470000 1510000
2021-03-02 12:00 28.29 894000 1530000 (2019) 418000 (2017) 1080000 534000 709000 1040000 1470000 1510000
2021-03-02 11:00 28.16 889000 1530000 (2019) 418000 (2017) 1080000 534000 709000 1040000 1470000 1510000
2021-03-02 10:00 28.10 887000 1530000 (2019) 418000 (2017) 1080000 534000 709000 1040000 1470000 1510000
2021-03-02 09:00 27.98 882000 1530000 (2019) 418000 (2017) 1080000 534000 709000 1040000 1470000 1510000
2021-03-02 08:00 27.84 877000 1530000 (2019) 418000 (2017) 1080000 534000 709000 1040000 1470000 1510000
2021-03-02 07:00 27.80 876000 1530000 (2019) 418000 (2017) 1080000 534000 709000 1040000 1470000 1510000
2021-03-02 06:00 27.69 872000 1530000 (2019) 418000 (2017) 1080000 534000 709000 1040000 1470000 1510000
2021-03-02 05:00 27.56 867000 1530000 (2019) 418000 (2017) 1080000 534000 709000 1040000 1470000 1510000
2021-03-02 04:00 27.44 863000 1530000 (2019) 418000 (2017) 1080000 534000 709000 1040000 1470000 1510000
2021-03-02 03:00 27.35 859000 1530000 (2019) 418000 (2017) 1080000 534000 709000 1040000 1470000 1510000
2021-03-02 02:00 27.24 855000 1530000 (2019) 418000 (2017) 1080000 534000 709000 1040000 1470000 1510000
2021-03-02 01:00 27.11 851000 1530000 (2019) 418000 (2017) 1080000 534000 709000 1040000 1470000 1510000
2021-03-02 00:00 27.02 847000 1530000 (2019) 418000 (2017) 1080000 534000 709000 1040000 1470000 1510000
2021-03-01 23:00 26.92 844000 1530000 (2019) 373000 (2017) 1080000 498000 685000 1090000 1460000 1500000
2021-03-01 22:00 26.80 840000 1530000 (2019) 373000 (2017) 1080000 498000 685000 1090000 1460000 1500000
2021-03-01 21:00 26.67 835000 1530000 (2019) 373000 (2017) 1080000 498000 685000 1090000 1460000 1500000
2021-03-01 20:00 26.58 832000 1530000 (2019) 373000 (2017) 1080000 498000 685000 1090000 1460000 1500000
2021-03-01 19:00 26.45 827000 1530000 (2019) 373000 (2017) 1080000 498000 685000 1090000 1460000 1500000
2021-03-01 18:00 26.33 823000 1530000 (2019) 373000 (2017) 1080000 498000 685000 1090000 1460000 1500000
2021-03-01 17:00 26.18 818000 1530000 (2019) 373000 (2017) 1080000 498000 685000 1090000 1460000 1500000
2021-03-01 16:00 26.09 815000 1530000 (2019) 373000 (2017) 1080000 498000 685000 1090000 1460000 1500000
2021-03-01 15:00 25.89 808000 1530000 (2019) 373000 (2017) 1080000 498000 685000 1090000 1460000 1500000
2021-03-01 14:00 25.81 805000 1530000 (2019) 373000 (2017) 1080000 498000 685000 1090000 1460000 1500000
2021-03-01 13:00 25.65 799000 1530000 (2019) 373000 (2017) 1080000 498000 685000 1090000 1460000 1500000
2021-03-01 12:00 25.49 794000 1530000 (2019) 373000 (2017) 1080000 498000 685000 1090000 1460000 1500000
2021-03-01 11:00 25.35 789000 1530000 (2019) 373000 (2017) 1080000 498000 685000 1090000 1460000 1500000
2021-03-01 10:00 25.22 784000 1530000 (2019) 373000 (2017) 1080000 498000 685000 1090000 1460000 1500000
2021-03-01 09:00 25.06 779000 1530000 (2019) 373000 (2017) 1080000 498000 685000 1090000 1460000 1500000
2021-03-01 08:00 24.91 774000 1530000 (2019) 373000 (2017) 1080000 498000 685000 1090000 1460000 1500000
2021-03-01 07:00 24.79 770000 1530000 (2019) 373000 (2017) 1080000 498000 685000 1090000 1460000 1500000
2021-03-01 06:00 24.64 765000 1530000 (2019) 373000 (2017) 1080000 498000 685000 1090000 1460000 1500000
2021-03-01 05:00 24.49 760000 1530000 (2019) 373000 (2017) 1080000 498000 685000 1090000 1460000 1500000
2021-03-01 04:00 24.30 753000 1530000 (2019) 373000 (2017) 1080000 498000 685000 1090000 1460000 1500000
2021-03-01 03:00 24.19 750000 1530000 (2019) 373000 (2017) 1080000 498000 685000 1090000 1460000 1500000
2021-03-01 02:00 24.06 745000 1530000 (2019) 373000 (2017) 1080000 498000 685000 1090000 1460000 1500000
2021-03-01 01:00 23.91 740000 1530000 (2019) 373000 (2017) 1080000 498000 685000 1090000 1460000 1500000
2021-03-01 00:00 23.72 734000 1530000 (2019) 373000 (2017) 1080000 498000 685000 1090000 1460000 1500000
2021-02-28 23:00 23.61 730000 1520000 (2019) 340000 (2017) 1080000 466000 654000 1190000 1440000 1490000
2021-02-28 22:00 23.54 728000 1520000 (2019) 340000 (2017) 1080000 466000 654000 1190000 1440000 1490000
2021-02-28 21:00 23.45 725000 1520000 (2019) 340000 (2017) 1080000 466000 654000 1190000 1440000 1490000
2021-02-28 20:00 23.33 721000 1520000 (2019) 340000 (2017) 1080000 466000 654000 1190000 1440000 1490000
2021-02-28 19:00 23.16 716000 1520000 (2019) 340000 (2017) 1080000 466000 654000 1190000 1440000 1490000
2021-02-28 18:00 23.03 711000 1520000 (2019) 340000 (2017) 1080000 466000 654000 1190000 1440000 1490000
2021-02-28 17:00 22.86 706000 1520000 (2019) 340000 (2017) 1080000 466000 654000 1190000 1440000 1490000
2021-02-28 16:00 22.72 701000 1520000 (2019) 340000 (2017) 1080000 466000 654000 1190000 1440000 1490000
2021-02-28 15:00 22.66 699000 1520000 (2019) 340000 (2017) 1080000 466000 654000 1190000 1440000 1490000
2021-02-28 14:00 22.56 696000 1520000 (2019) 340000 (2017) 1080000 466000 654000 1190000 1440000 1490000
2021-02-28 13:00 22.45 693000 1520000 (2019) 340000 (2017) 1080000 466000 654000 1190000 1440000 1490000
2021-02-28 12:00 22.33 689000 1520000 (2019) 340000 (2017) 1080000 466000 654000 1190000 1440000 1490000
2021-02-28 11:00 22.30 688000 1520000 (2019) 340000 (2017) 1080000 466000 654000 1190000 1440000 1490000
2021-02-28 10:00 22.19 684000 1520000 (2019) 340000 (2017) 1080000 466000 654000 1190000 1440000 1490000
2021-02-28 09:00 22.11 682000 1520000 (2019) 340000 (2017) 1080000 466000 654000 1190000 1440000 1490000
2021-02-28 08:00 22.03 679000 1520000 (2019) 340000 (2017) 1080000 466000 654000 1190000 1440000 1490000
2021-02-28 07:00 21.98 678000 1520000 (2019) 340000 (2017) 1080000 466000 654000 1190000 1440000 1490000
2021-02-28 06:00 21.90 675000 1520000 (2019) 340000 (2017) 1080000 466000 654000 1190000 1440000 1490000
2021-02-28 05:00 21.77 671000 1520000 (2019) 340000 (2017) 1080000 466000 654000 1190000 1440000 1490000
2021-02-28 04:00 21.68 668000 1520000 (2019) 340000 (2017) 1080000 466000 654000 1190000 1440000 1490000
2021-02-28 03:00 21.60 666000 1520000 (2019) 340000 (2017) 1080000 466000 654000 1190000 1440000 1490000
2021-02-28 02:00 21.55 664000 1520000 (2019) 340000 (2017) 1080000 466000 654000 1190000 1440000 1490000
2021-02-28 01:00 21.44 661000 1520000 (2019) 340000 (2017) 1080000 466000 654000 1190000 1440000 1490000
2021-02-28 00:00 21.34 657000 1520000 (2019) 340000 (2017) 1080000 466000 654000 1190000 1440000 1490000
2021-02-27 23:00 21.20 653000 1510000 (2019) 345000 (2017) 1070000 463000 641000 1230000 1410000 1470000
2021-02-27 22:00 21.17 652000 1510000 (2019) 345000 (2017) 1070000 463000 641000 1230000 1410000 1470000
2021-02-27 21:00 21.06 649000 1510000 (2019) 345000 (2017) 1070000 463000 641000 1230000 1410000 1470000
2021-02-27 20:00 20.97 646000 1510000 (2019) 345000 (2017) 1070000 463000 641000 1230000 1410000 1470000
2021-02-27 19:00 20.84 642000 1510000 (2019) 345000 (2017) 1070000 463000 641000 1230000 1410000 1470000
2021-02-27 18:00 20.81 641000 1510000 (2019) 345000 (2017) 1070000 463000 641000 1230000 1410000 1470000
2021-02-27 17:00 20.67 637000 1510000 (2019) 345000 (2017) 1070000 463000 641000 1230000 1410000 1470000
2021-02-27 16:00 20.58 634000 1510000 (2019) 345000 (2017) 1070000 463000 641000 1230000 1410000 1470000
2021-02-27 15:00 20.53 633000 1510000 (2019) 345000 (2017) 1070000 463000 641000 1230000 1410000 1470000
2021-02-27 14:00 20.39 628000 1510000 (2019) 345000 (2017) 1070000 463000 641000 1230000 1410000 1470000
2021-02-27 13:00 20.37 628000 1510000 (2019) 345000 (2017) 1070000 463000 641000 1230000 1410000 1470000
2021-02-27 12:00 20.20 623000 1510000 (2019) 345000 (2017) 1070000 463000 641000 1230000 1410000 1470000
2021-02-27 11:00 20.09 619000 1510000 (2019) 345000 (2017) 1070000 463000 641000 1230000 1410000 1470000
2021-02-27 10:00 20.04 618000 1510000 (2019) 345000 (2017) 1070000 463000 641000 1230000 1410000 1470000
2021-02-27 09:00 19.95 615000 1510000 (2019) 345000 (2017) 1070000 463000 641000 1230000 1410000 1470000
2021-02-27 08:00 19.85 612000 1510000 (2019) 345000 (2017) 1070000 463000 641000 1230000 1410000 1470000
2021-02-27 07:00 19.75 609000 1510000 (2019) 345000 (2017) 1070000 463000 641000 1230000 1410000 1470000
2021-02-27 06:00 19.68 607000 1510000 (2019) 345000 (2017) 1070000 463000 641000 1230000 1410000 1470000
2021-02-27 05:00 19.59 604000 1510000 (2019) 345000 (2017) 1070000 463000 641000 1230000 1410000 1470000
2021-02-27 04:00 19.47 601000 1510000 (2019) 345000 (2017) 1070000 463000 641000 1230000 1410000 1470000
2021-02-27 03:00 19.40 599000 1510000 (2019) 345000 (2017) 1070000 463000 641000 1230000 1410000 1470000
2021-02-27 02:00 19.28 595000 1510000 (2019) 345000 (2017) 1070000 463000 641000 1230000 1410000 1470000
2021-02-27 01:00 19.20 593000 1510000 (2019) 345000 (2017) 1070000 463000 641000 1230000 1410000 1470000
2021-02-27 00:00 19.06 589000 1510000 (2019) 345000 (2017) 1070000 463000 641000 1230000 1410000 1470000
2021-02-26 23:00 19.02 587000 1500000 (2019) 366000 (2017) 1060000 471000 628000 1260000 1380000 1450000
2021-02-26 22:00 18.94 585000 1500000 (2019) 366000 (2017) 1060000 471000 628000 1260000 1380000 1450000
2021-02-26 21:00 18.84 582000 1500000 (2019) 366000 (2017) 1060000 471000 628000 1260000 1380000 1450000
2021-02-26 20:00 18.78 581000 1500000 (2019) 366000 (2017) 1060000 471000 628000 1260000 1380000 1450000
2021-02-26 19:00 18.69 578000 1500000 (2019) 366000 (2017) 1060000 471000 628000 1260000 1380000 1450000
2021-02-26 18:00 18.63 577000 1500000 (2019) 366000 (2017) 1060000 471000 628000 1260000 1380000 1450000
2021-02-26 17:00 18.55 575000 1500000 (2019) 366000 (2017) 1060000 471000 628000 1260000 1380000 1450000
2021-02-26 16:00 18.48 573000 1500000 (2019) 366000 (2017) 1060000 471000 628000 1260000 1380000 1450000
2021-02-26 15:00 18.41 571000 1500000 (2019) 366000 (2017) 1060000 471000 628000 1260000 1380000 1450000
2021-02-26 14:00 18.34 569000 1500000 (2019) 366000 (2017) 1060000 471000 628000 1260000 1380000 1450000
2021-02-26 13:00 18.23 566000 1500000 (2019) 366000 (2017) 1060000 471000 628000 1260000 1380000 1450000
2021-02-26 12:00 18.19 565000 1500000 (2019) 366000 (2017) 1060000 471000 628000 1260000 1380000 1450000
2021-02-26 11:00 18.06 562000 1500000 (2019) 366000 (2017) 1060000 471000 628000 1260000 1380000 1450000
2021-02-26 10:00 18.03 561000 1500000 (2019) 366000 (2017) 1060000 471000 628000 1260000 1380000 1450000
2021-02-26 09:00 17.87 557000 1500000 (2019) 366000 (2017) 1060000 471000 628000 1260000 1380000 1450000
2021-02-26 08:00 17.89 557000 1500000 (2019) 366000 (2017) 1060000 471000 628000 1260000 1380000 1450000
2021-02-26 07:00 17.87 557000 1500000 (2019) 366000 (2017) 1060000 471000 628000 1260000 1380000 1450000
2021-02-26 06:00 17.75 553000 1500000 (2019) 366000 (2017) 1060000 471000 628000 1260000 1380000 1450000
2021-02-26 05:00 17.71 552000 1500000 (2019) 366000 (2017) 1060000 471000 628000 1260000 1380000 1450000
2021-02-26 04:00 17.67 551000 1500000 (2019) 366000 (2017) 1060000 471000 628000 1260000 1380000 1450000
2021-02-26 03:00 17.58 549000 1500000 (2019) 366000 (2017) 1060000 471000 628000 1260000 1380000 1450000
2021-02-26 02:00 17.54 548000 1500000 (2019) 366000 (2017) 1060000 471000 628000 1260000 1380000 1450000
2021-02-26 01:00 17.42 545000 1500000 (2019) 366000 (2017) 1060000 471000 628000 1260000 1380000 1450000
2021-02-26 00:00 17.37 543000 1500000 (2019) 366000 (2017) 1060000 471000 628000 1260000 1380000 1450000
2021-02-25 23:00 17.34 543000 1480000 (2019) 380000 (2017) 1030000 472000 610000 1190000 1380000 1440000
2021-02-25 22:00 17.27 541000 1480000 (2019) 380000 (2017) 1030000 472000 610000 1190000 1380000 1440000
2021-02-25 21:00 17.23 540000 1480000 (2019) 380000 (2017) 1030000 472000 610000 1190000 1380000 1440000
2021-02-25 20:00 17.12 537000 1480000 (2019) 380000 (2017) 1030000 472000 610000 1190000 1380000 1440000
2021-02-25 19:00 17.09 536000 1480000 (2019) 380000 (2017) 1030000 472000 610000 1190000 1380000 1440000
2021-02-25 18:00 17.05 535000 1480000 (2019) 380000 (2017) 1030000 472000 610000 1190000 1380000 1440000
2021-02-25 17:00 16.96 533000 1480000 (2019) 380000 (2017) 1030000 472000 610000 1190000 1380000 1440000
2021-02-25 16:00 16.94 532000 1480000 (2019) 380000 (2017) 1030000 472000 610000 1190000 1380000 1440000
2021-02-25 15:00 16.86 530000 1480000 (2019) 380000 (2017) 1030000 472000 610000 1190000 1380000 1440000
2021-02-25 14:00 16.76 528000 1480000 (2019) 380000 (2017) 1030000 472000 610000 1190000 1380000 1440000
2021-02-25 13:00 16.68 526000 1480000 (2019) 380000 (2017) 1030000 472000 610000 1190000 1380000 1440000
2021-02-25 12:00 16.66 525000 1480000 (2019) 380000 (2017) 1030000 472000 610000 1190000 1380000 1440000
2021-02-25 11:00 16.60 524000 1480000 (2019) 380000 (2017) 1030000 472000 610000 1190000 1380000 1440000
2021-02-25 10:00 16.49 521000 1480000 (2019) 380000 (2017) 1030000 472000 610000 1190000 1380000 1440000
2021-02-25 09:00 16.47 520000 1480000 (2019) 380000 (2017) 1030000 472000 610000 1190000 1380000 1440000
2021-02-25 08:00 16.41 519000 1480000 (2019) 380000 (2017) 1030000 472000 610000 1190000 1380000 1440000
2021-02-25 07:00 16.37 518000 1480000 (2019) 380000 (2017) 1030000 472000 610000 1190000 1380000 1440000
2021-02-25 06:00 16.29 516000 1480000 (2019) 380000 (2017) 1030000 472000 610000 1190000 1380000 1440000
2021-02-25 05:00 16.23 514000 1480000 (2019) 380000 (2017) 1030000 472000 610000 1190000 1380000 1440000
2021-02-25 04:00 16.16 512000 1480000 (2019) 380000 (2017) 1030000 472000 610000 1190000 1380000 1440000
2021-02-25 03:00 16.07 510000 1480000 (2019) 380000 (2017) 1030000 472000 610000 1190000 1380000 1440000
2021-02-25 02:00 16.02 509000 1480000 (2019) 380000 (2017) 1030000 472000 610000 1190000 1380000 1440000
2021-02-25 01:00 15.95 507000 1480000 (2019) 380000 (2017) 1030000 472000 610000 1190000 1380000 1440000
2021-02-25 00:00 15.88 505000 1480000 (2019) 380000 (2017) 1030000 472000 610000 1190000 1380000 1440000
2021-02-24 23:00 15.85 505000 1460000 (2019) 401000 (2017) 1010000 480000 598000 1100000 1380000 1430000
2021-02-24 22:00 15.78 503000 1460000 (2019) 401000 (2017) 1010000 480000 598000 1100000 1380000 1430000
2021-02-24 21:00 15.70 501000 1460000 (2019) 401000 (2017) 1010000 480000 598000 1100000 1380000 1430000
2021-02-24 20:00 15.62 499000 1460000 (2019) 401000 (2017) 1010000 480000 598000 1100000 1380000 1430000
2021-02-24 19:00 15.58 498000 1460000 (2019) 401000 (2017) 1010000 480000 598000 1100000 1380000 1430000
2021-02-24 18:00 15.49 496000 1460000 (2019) 401000 (2017) 1010000 480000 598000 1100000 1380000 1430000
2021-02-24 17:00 15.48 495000 1460000 (2019) 401000 (2017) 1010000 480000 598000 1100000 1380000 1430000
2021-02-24 16:00 15.42 494000 1460000 (2019) 401000 (2017) 1010000 480000 598000 1100000 1380000 1430000
2021-02-24 15:00 15.33 492000 1460000 (2019) 401000 (2017) 1010000 480000 598000 1100000 1380000 1430000
2021-02-24 14:00 15.21 489000 1460000 (2019) 401000 (2017) 1010000 480000 598000 1100000 1380000 1430000
2021-02-24 13:00 15.20 488000 1460000 (2019) 401000 (2017) 1010000 480000 598000 1100000 1380000 1430000
2021-02-24 12:00 15.12 486000 1460000 (2019) 401000 (2017) 1010000 480000 598000 1100000 1380000 1430000
2021-02-24 11:00 15.04 485000 1460000 (2019) 401000 (2017) 1010000 480000 598000 1100000 1380000 1430000
2021-02-24 10:00 15.00 484000 1460000 (2019) 401000 (2017) 1010000 480000 598000 1100000 1380000 1430000
2021-02-24 09:00 14.98 483000 1460000 (2019) 401000 (2017) 1010000 480000 598000 1100000 1380000 1430000
2021-02-24 08:00 14.92 482000 1460000 (2019) 401000 (2017) 1010000 480000 598000 1100000 1380000 1430000
2021-02-24 07:00 14.88 481000 1460000 (2019) 401000 (2017) 1010000 480000 598000 1100000 1380000 1430000
2021-02-24 06:00 14.84 480000 1460000 (2019) 401000 (2017) 1010000 480000 598000 1100000 1380000 1430000
2021-02-24 05:00 14.80 479000 1460000 (2019) 401000 (2017) 1010000 480000 598000 1100000 1380000 1430000
2021-02-24 04:00 14.75 477000 1460000 (2019) 401000 (2017) 1010000 480000 598000 1100000 1380000 1430000
2021-02-24 03:00 14.76 478000 1460000 (2019) 401000 (2017) 1010000 480000 598000 1100000 1380000 1430000
2021-02-24 02:00 14.75 477000 1460000 (2019) 401000 (2017) 1010000 480000 598000 1100000 1380000 1430000
2021-02-24 01:00 14.71 476000 1460000 (2019) 401000 (2017) 1010000 480000 598000 1100000 1380000 1430000
2021-02-24 00:00 14.68 476000 1460000 (2019) 401000 (2017) 1010000 480000 598000 1100000 1380000 1430000
2021-02-23 23:00 14.70 476000 1450000 (2019) 423000 (2017) 990000 492000 596000 1020000 1370000 1420000
2021-02-23 22:00 14.73 477000 1450000 (2019) 423000 (2017) 990000 492000 596000 1020000 1370000 1420000
2021-02-23 21:00 14.68 476000 1450000 (2019) 423000 (2017) 990000 492000 596000 1020000 1370000 1420000
2021-02-23 20:00 14.69 476000 1450000 (2019) 423000 (2017) 990000 492000 596000 1020000 1370000 1420000
2021-02-23 19:00 14.66 475000 1450000 (2019) 423000 (2017) 990000 492000 596000 1020000 1370000 1420000
2021-02-23 18:00 14.68 476000 1450000 (2019) 423000 (2017) 990000 492000 596000 1020000 1370000 1420000
2021-02-23 17:00 14.66 475000 1450000 (2019) 423000 (2017) 990000 492000 596000 1020000 1370000 1420000
2021-02-23 16:00 14.65 475000 1450000 (2019) 423000 (2017) 990000 492000 596000 1020000 1370000 1420000
2021-02-23 15:00 14.63 474000 1450000 (2019) 423000 (2017) 990000 492000 596000 1020000 1370000 1420000
2021-02-23 14:00 14.54 472000 1450000 (2019) 423000 (2017) 990000 492000 596000 1020000 1370000 1420000
2021-02-23 13:00 14.60 474000 1450000 (2019) 423000 (2017) 990000 492000 596000 1020000 1370000 1420000
2021-02-23 12:00 14.57 473000 1450000 (2019) 423000 (2017) 990000 492000 596000 1020000 1370000 1420000
2021-02-23 11:00 14.55 473000 1450000 (2019) 423000 (2017) 990000 492000 596000 1020000 1370000 1420000
2021-02-23 10:00 14.50 471000 1450000 (2019) 423000 (2017) 990000 492000 596000 1020000 1370000 1420000
2021-02-23 09:00 14.53 472000 1450000 (2019) 423000 (2017) 990000 492000 596000 1020000 1370000 1420000
2021-02-23 08:00 14.51 472000 1450000 (2019) 423000 (2017) 990000 492000 596000 1020000 1370000 1420000
2021-02-23 07:00 14.55 473000 1450000 (2019) 423000 (2017) 990000 492000 596000 1020000 1370000 1420000
2021-02-23 06:00 14.48 471000 1450000 (2019) 423000 (2017) 990000 492000 596000 1020000 1370000 1420000
2021-02-23 05:00 14.47 471000 1450000 (2019) 423000 (2017) 990000 492000 596000 1020000 1370000 1420000
2021-02-23 04:00 14.45 470000 1450000 (2019) 423000 (2017) 990000 492000 596000 1020000 1370000 1420000
2021-02-23 03:00 14.48 471000 1450000 (2019) 423000 (2017) 990000 492000 596000 1020000 1370000 1420000
2021-02-23 02:00 14.44 470000 1450000 (2019) 423000 (2017) 990000 492000 596000 1020000 1370000 1420000
2021-02-23 01:00 14.44 470000 1450000 (2019) 423000 (2017) 990000 492000 596000 1020000 1370000 1420000
2021-02-23 00:00 14.43 470000 1450000 (2019) 423000 (2017) 990000 492000 596000 1020000 1370000 1420000
2021-02-22 23:00 14.45 470000 1440000 (2019) 448000 (2017) 1030000 448000 573000 1120000 1400000 1440000
2021-02-22 22:00 14.42 469000 1440000 (2019) 448000 (2017) 1030000 448000 573000 1120000 1400000 1440000
2021-02-22 21:00 14.42 469000 1440000 (2019) 448000 (2017) 1030000 448000 573000 1120000 1400000 1440000
2021-02-22 20:00 14.42 469000 1440000 (2019) 448000 (2017) 1030000 448000 573000 1120000 1400000 1440000
2021-02-22 19:00 14.40 469000 1440000 (2019) 448000 (2017) 1030000 448000 573000 1120000 1400000 1440000
2021-02-22 18:00 14.37 468000 1440000 (2019) 448000 (2017) 1030000 448000 573000 1120000 1400000 1440000
2021-02-22 17:00 14.38 468000 1440000 (2019) 448000 (2017) 1030000 448000 573000 1120000 1400000 1440000
2021-02-22 16:00 14.43 470000 1440000 (2019) 448000 (2017) 1030000 448000 573000 1120000 1400000 1440000
2021-02-22 15:00 14.41 469000 1440000 (2019) 448000 (2017) 1030000 448000 573000 1120000 1400000 1440000
2021-02-22 14:00 14.31 467000 1440000 (2019) 448000 (2017) 1030000 448000 573000 1120000 1400000 1440000
2021-02-22 13:00 14.31 467000 1440000 (2019) 448000 (2017) 1030000 448000 573000 1120000 1400000 1440000
2021-02-22 12:00 14.33 467000 1440000 (2019) 448000 (2017) 1030000 448000 573000 1120000 1400000 1440000
2021-02-22 11:00 14.33 467000 1440000 (2019) 448000 (2017) 1030000 448000 573000 1120000 1400000 1440000
2021-02-22 10:00 14.32 467000 1440000 (2019) 448000 (2017) 1030000 448000 573000 1120000 1400000 1440000
2021-02-22 09:00 14.33 467000 1440000 (2019) 448000 (2017) 1030000 448000 573000 1120000 1400000 1440000
2021-02-22 08:00 14.30 467000 1440000 (2019) 448000 (2017) 1030000 448000 573000 1120000 1400000 1440000
2021-02-22 07:00 14.36 468000 1440000 (2019) 448000 (2017) 1030000 448000 573000 1120000 1400000 1440000
2021-02-22 06:00 14.36 468000 1440000 (2019) 448000 (2017) 1030000 448000 573000 1120000 1400000 1440000
2021-02-22 05:00 14.36 468000 1440000 (2019) 448000 (2017) 1030000 448000 573000 1120000 1400000 1440000
2021-02-22 04:00 14.31 467000 1440000 (2019) 448000 (2017) 1030000 448000 573000 1120000 1400000 1440000
2021-02-22 03:00 14.27 466000 1440000 (2019) 448000 (2017) 1030000 448000 573000 1120000 1400000 1440000
2021-02-22 02:00 14.33 467000 1440000 (2019) 448000 (2017) 1030000 448000 573000 1120000 1400000 1440000
2021-02-22 01:00 14.26 466000 1440000 (2019) 448000 (2017) 1030000 448000 573000 1120000 1400000 1440000
2021-02-22 00:00 14.27 466000 1440000 (2019) 448000 (2017) 1030000 448000 573000 1120000 1400000 1440000
2021-02-21 23:00 14.25 465000 1420000 (2019) 469000 (2017) 1020000 469000 577000 1100000 1390000 1420000
2021-02-21 22:00 14.23 465000 1420000 (2019) 469000 (2017) 1020000 469000 577000 1100000 1390000 1420000
2021-02-21 21:00 14.25 465000 1420000 (2019) 469000 (2017) 1020000 469000 577000 1100000 1390000 1420000
2021-02-21 20:00 14.30 467000 1420000 (2019) 469000 (2017) 1020000 469000 577000 1100000 1390000 1420000
2021-02-21 19:00 14.26 466000 1420000 (2019) 469000 (2017) 1020000 469000 577000 1100000 1390000 1420000
2021-02-21 18:00 14.27 466000 1420000 (2019) 469000 (2017) 1020000 469000 577000 1100000 1390000 1420000
2021-02-21 17:00 14.27 466000 1420000 (2019) 469000 (2017) 1020000 469000 577000 1100000 1390000 1420000
2021-02-21 16:00 14.26 466000 1420000 (2019) 469000 (2017) 1020000 469000 577000 1100000 1390000 1420000
2021-02-21 15:00 14.25 465000 1420000 (2019) 469000 (2017) 1020000 469000 577000 1100000 1390000 1420000
2021-02-21 14:00 14.26 466000 1420000 (2019) 469000 (2017) 1020000 469000 577000 1100000 1390000 1420000
2021-02-21 13:00 14.28 466000 1420000 (2019) 469000 (2017) 1020000 469000 577000 1100000 1390000 1420000
2021-02-21 12:00 14.26 466000 1420000 (2019) 469000 (2017) 1020000 469000 577000 1100000 1390000 1420000
2021-02-21 11:00 14.17 463000 1420000 (2019) 469000 (2017) 1020000 469000 577000 1100000 1390000 1420000
2021-02-21 10:00 14.25 465000 1420000 (2019) 469000 (2017) 1020000 469000 577000 1100000 1390000 1420000
2021-02-21 09:00 14.24 465000 1420000 (2019) 469000 (2017) 1020000 469000 577000 1100000 1390000 1420000
2021-02-21 08:00 14.21 464000 1420000 (2019) 469000 (2017) 1020000 469000 577000 1100000 1390000 1420000
2021-02-21 07:00 14.19 464000 1420000 (2019) 469000 (2017) 1020000 469000 577000 1100000 1390000 1420000
2021-02-21 06:00 14.17 463000 1420000 (2019) 469000 (2017) 1020000 469000 577000 1100000 1390000 1420000
2021-02-21 05:00 14.17 463000 1420000 (2019) 469000 (2017) 1020000 469000 577000 1100000 1390000 1420000
2021-02-21 04:00 14.16 463000 1420000 (2019) 469000 (2017) 1020000 469000 577000 1100000 1390000 1420000
2021-02-21 03:00 14.13 462000 1420000 (2019) 469000 (2017) 1020000 469000 577000 1100000 1390000 1420000
2021-02-21 02:00 14.15 463000 1420000 (2019) 469000 (2017) 1020000 469000 577000 1100000 1390000 1420000
2021-02-21 01:00 14.15 463000 1420000 (2019) 469000 (2017) 1020000 469000 577000 1100000 1390000 1420000
2021-02-21 00:00 14.05 461000 1420000 (2019) 469000 (2017) 1020000 469000 577000 1100000 1390000 1420000
2021-02-20 23:00 14.19 464000 1400000 (2019) 480000 (2017) 1010000 480000 579000 1080000 1370000 1400000
2021-02-20 20:00 14.08 461000 1400000 (2019) 480000 (2017) 1010000 480000 579000 1080000 1370000 1400000
2021-02-20 19:00 14.08 461000 1400000 (2019) 480000 (2017) 1010000 480000 579000 1080000 1370000 1400000
2021-02-20 18:00 14.03 460000 1400000 (2019) 480000 (2017) 1010000 480000 579000 1080000 1370000 1400000
2021-02-20 17:00 14.08 461000 1400000 (2019) 480000 (2017) 1010000 480000 579000 1080000 1370000 1400000
2021-02-20 16:00 14.02 460000 1400000 (2019) 480000 (2017) 1010000 480000 579000 1080000 1370000 1400000
2021-02-20 14:00 14.06 461000 1400000 (2019) 480000 (2017) 1010000 480000 579000 1080000 1370000 1400000
2021-02-20 13:00 13.96 458000 1400000 (2019) 480000 (2017) 1010000 480000 579000 1080000 1370000 1400000
2021-02-20 12:00 13.93 458000 1400000 (2019) 480000 (2017) 1010000 480000 579000 1080000 1370000 1400000
2021-02-20 11:00 14.01 460000 1400000 (2019) 480000 (2017) 1010000 480000 579000 1080000 1370000 1400000
2021-02-20 10:00 13.98 459000 1400000 (2019) 480000 (2017) 1010000 480000 579000 1080000 1370000 1400000
2021-02-20 09:00 13.96 458000 1400000 (2019) 480000 (2017) 1010000 480000 579000 1080000 1370000 1400000
2021-02-20 08:00 13.95 458000 1400000 (2019) 480000 (2017) 1010000 480000 579000 1080000 1370000 1400000
2021-02-20 07:00 13.84 455000 1400000 (2019) 480000 (2017) 1010000 480000 579000 1080000 1370000 1400000
2021-02-20 06:00 13.83 455000 1400000 (2019) 480000 (2017) 1010000 480000 579000 1080000 1370000 1400000
2021-02-20 05:00 13.70 452000 1400000 (2019) 480000 (2017) 1010000 480000 579000 1080000 1370000 1400000
2021-02-20 04:00 13.69 452000 1400000 (2019) 480000 (2017) 1010000 480000 579000 1080000 1370000 1400000
2021-02-20 03:00 13.68 452000 1400000 (2019) 480000 (2017) 1010000 480000 579000 1080000 1370000 1400000
2021-02-20 02:00 13.67 451000 1400000 (2019) 480000 (2017) 1010000 480000 579000 1080000 1370000 1400000
2021-02-20 01:00 13.71 452000 1400000 (2019) 480000 (2017) 1010000 480000 579000 1080000 1370000 1400000
2021-02-20 00:00 13.67 451000 1400000 (2019) 480000 (2017) 1010000 480000 579000 1080000 1370000 1400000
2021-02-19 23:00 13.60 450000 1370000 (2019) 482000 (2017) 997000 482000 576000 1070000 1350000 1370000
2021-02-19 22:00 13.49 447000 1370000 (2019) 482000 (2017) 997000 482000 576000 1070000 1350000 1370000
2021-02-19 21:00 13.49 447000 1370000 (2019) 482000 (2017) 997000 482000 576000 1070000 1350000 1370000
2021-02-19 20:00 13.50 447000 1370000 (2019) 482000 (2017) 997000 482000 576000 1070000 1350000 1370000
2021-02-19 19:00 13.57 449000 1370000 (2019) 482000 (2017) 997000 482000 576000 1070000 1350000 1370000
2021-02-19 18:00 13.50 447000 1370000 (2019) 482000 (2017) 997000 482000 576000 1070000 1350000 1370000
2021-02-19 17:00 13.42 446000 1370000 (2019) 482000 (2017) 997000 482000 576000 1070000 1350000 1370000
2021-02-19 16:00 13.38 445000 1370000 (2019) 482000 (2017) 997000 482000 576000 1070000 1350000 1370000
2021-02-19 15:00 13.35 444000 1370000 (2019) 482000 (2017) 997000 482000 576000 1070000 1350000 1370000
2021-02-19 14:00 13.31 443000 1370000 (2019) 482000 (2017) 997000 482000 576000 1070000 1350000 1370000
2021-02-19 13:00 13.29 443000 1370000 (2019) 482000 (2017) 997000 482000 576000 1070000 1350000 1370000
2021-02-19 12:00 13.29 443000 1370000 (2019) 482000 (2017) 997000 482000 576000 1070000 1350000 1370000
2021-02-19 11:00 13.32 443000 1370000 (2019) 482000 (2017) 997000 482000 576000 1070000 1350000 1370000
2021-02-19 10:00 13.31 443000 1370000 (2019) 482000 (2017) 997000 482000 576000 1070000 1350000 1370000
2021-02-19 09:00 13.23 441000 1370000 (2019) 482000 (2017) 997000 482000 576000 1070000 1350000 1370000
2021-02-19 08:00 13.23 441000 1370000 (2019) 482000 (2017) 997000 482000 576000 1070000 1350000 1370000
2021-02-19 06:00 13.04 437000 1370000 (2019) 482000 (2017) 997000 482000 576000 1070000 1350000 1370000
2021-02-19 05:00 13.08 438000 1370000 (2019) 482000 (2017) 997000 482000 576000 1070000 1350000 1370000
2021-02-19 04:00 13.09 438000 1370000 (2019) 482000 (2017) 997000 482000 576000 1070000 1350000 1370000
2021-02-19 02:00 12.97 435000 1370000 (2019) 482000 (2017) 997000 482000 576000 1070000 1350000 1370000
2021-02-19 01:00 13.08 438000 1370000 (2019) 482000 (2017) 997000 482000 576000 1070000 1350000 1370000
2021-02-19 00:00 13.11 438000 1370000 (2019) 482000 (2017) 997000 482000 576000 1070000 1350000 1370000
2021-02-18 23:00 13.01 436000 1350000 (2019) 482000 (2017) 985000 482000 571000 1050000 1330000 1350000
2021-02-18 21:00 12.95 435000 1350000 (2019) 482000 (2017) 985000 482000 571000 1050000 1330000 1350000
2021-02-18 20:00 12.94 434000 1350000 (2019) 482000 (2017) 985000 482000 571000 1050000 1330000 1350000
2021-02-18 19:00 12.88 433000 1350000 (2019) 482000 (2017) 985000 482000 571000 1050000 1330000 1350000
2021-02-18 18:00 12.91 434000 1350000 (2019) 482000 (2017) 985000 482000 571000 1050000 1330000 1350000
2021-02-18 17:00 12.92 434000 1350000 (2019) 482000 (2017) 985000 482000 571000 1050000 1330000 1350000
2021-02-18 16:00 12.92 434000 1350000 (2019) 482000 (2017) 985000 482000 571000 1050000 1330000 1350000
2021-02-18 15:00 12.91 434000 1350000 (2019) 482000 (2017) 985000 482000 571000 1050000 1330000 1350000
2021-02-18 10:00 12.79 431000 1350000 (2019) 482000 (2017) 985000 482000 571000 1050000 1330000 1350000
2021-02-18 09:00 12.80 431000 1350000 (2019) 482000 (2017) 985000 482000 571000 1050000 1330000 1350000
2021-02-18 05:00 12.83 432000 1350000 (2019) 482000 (2017) 985000 482000 571000 1050000 1330000 1350000
2021-02-18 01:00 12.95 435000 1350000 (2019) 482000 (2017) 985000 482000 571000 1050000 1330000 1350000
2021-02-18 00:00 12.79 431000 1350000 (2019) 482000 (2017) 985000 482000 571000 1050000 1330000 1350000
2021-02-17 23:00 12.75 430000 1330000 (2019) 488000 (2017) 974000 488000 570000 1040000 1310000 1330000
2021-02-17 22:00 12.77 430000 1330000 (2019) 488000 (2017) 974000 488000 570000 1040000 1310000 1330000
2021-02-17 21:00 12.75 430000 1330000 (2019) 488000 (2017) 974000 488000 570000 1040000 1310000 1330000
2021-02-17 20:00 12.72 429000 1330000 (2019) 488000 (2017) 974000 488000 570000 1040000 1310000 1330000
2021-02-17 19:00 12.69 429000 1330000 (2019) 488000 (2017) 974000 488000 570000 1040000 1310000 1330000
2021-02-17 18:00 12.73 429000 1330000 (2019) 488000 (2017) 974000 488000 570000 1040000 1310000 1330000
2021-02-17 17:00 12.74 430000 1330000 (2019) 488000 (2017) 974000 488000 570000 1040000 1310000 1330000
2021-02-17 16:00 12.71 429000 1330000 (2019) 488000 (2017) 974000 488000 570000 1040000 1310000 1330000
2021-02-17 15:00 12.70 429000 1330000 (2019) 488000 (2017) 974000 488000 570000 1040000 1310000 1330000
2021-02-17 14:00 12.71 429000 1330000 (2019) 488000 (2017) 974000 488000 570000 1040000 1310000 1330000
2021-02-17 13:00 12.78 431000 1330000 (2019) 488000 (2017) 974000 488000 570000 1040000 1310000 1330000
2021-02-17 12:00 12.77 430000 1330000 (2019) 488000 (2017) 974000 488000 570000 1040000 1310000 1330000
2021-02-17 11:00 12.71 429000 1330000 (2019) 488000 (2017) 974000 488000 570000 1040000 1310000 1330000
2021-02-17 10:00 12.68 428000 1330000 (2019) 488000 (2017) 974000 488000 570000 1040000 1310000 1330000
2021-02-17 09:00 12.71 429000 1330000 (2019) 488000 (2017) 974000 488000 570000 1040000 1310000 1330000
2021-02-17 08:00 12.69 429000 1330000 (2019) 488000 (2017) 974000 488000 570000 1040000 1310000 1330000
2021-02-17 07:00 12.81 431000 1330000 (2019) 488000 (2017) 974000 488000 570000 1040000 1310000 1330000
2021-02-17 05:00 13.00 436000 1330000 (2019) 488000 (2017) 974000 488000 570000 1040000 1310000 1330000
2021-02-17 04:00 12.78 431000 1330000 (2019) 488000 (2017) 974000 488000 570000 1040000 1310000 1330000
2021-02-17 03:00 12.74 430000 1330000 (2019) 488000 (2017) 974000 488000 570000 1040000 1310000 1330000
2021-02-17 02:00 12.71 429000 1330000 (2019) 488000 (2017) 974000 488000 570000 1040000 1310000 1330000
2021-02-17 01:00 12.67 428000 1330000 (2019) 488000 (2017) 974000 488000 570000 1040000 1310000 1330000
2021-02-17 00:00 12.63 427000 1330000 (2019) 488000 (2017) 974000 488000 570000 1040000 1310000 1330000
2021-02-16 23:00 12.57 426000 1310000 (2019) 502000 (2017) 964000 502000 575000 1020000 1300000 1310000
2021-02-16 22:00 12.60 426000 1310000 (2019) 502000 (2017) 964000 502000 575000 1020000 1300000 1310000
2021-02-16 21:00 12.54 425000 1310000 (2019) 502000 (2017) 964000 502000 575000 1020000 1300000 1310000
2021-02-16 20:00 12.51 424000 1310000 (2019) 502000 (2017) 964000 502000 575000 1020000 1300000 1310000
2021-02-16 19:00 12.64 427000 1310000 (2019) 502000 (2017) 964000 502000 575000 1020000 1300000 1310000
2021-02-16 18:00 12.44 423000 1310000 (2019) 502000 (2017) 964000 502000 575000 1020000 1300000 1310000
2021-02-16 17:00 12.47 423000 1310000 (2019) 502000 (2017) 964000 502000 575000 1020000 1300000 1310000
2021-02-16 16:00 12.48 424000 1310000 (2019) 502000 (2017) 964000 502000 575000 1020000 1300000 1310000
2021-02-16 15:00 12.50 424000 1310000 (2019) 502000 (2017) 964000 502000 575000 1020000 1300000 1310000
2021-02-16 14:00 12.53 425000 1310000 (2019) 502000 (2017) 964000 502000 575000 1020000 1300000 1310000
2021-02-16 13:00 12.49 424000 1310000 (2019) 502000 (2017) 964000 502000 575000 1020000 1300000 1310000
2021-02-16 12:00 12.60 426000 1310000 (2019) 502000 (2017) 964000 502000 575000 1020000 1300000 1310000
2021-02-16 11:00 12.45 423000 1310000 (2019) 502000 (2017) 964000 502000 575000 1020000 1300000 1310000
2021-02-16 10:00 12.44 423000 1310000 (2019) 502000 (2017) 964000 502000 575000 1020000 1300000 1310000
2021-02-16 09:00 12.44 423000 1310000 (2019) 502000 (2017) 964000 502000 575000 1020000 1300000 1310000
2021-02-16 07:00 12.42 422000 1310000 (2019) 502000 (2017) 964000 502000 575000 1020000 1300000 1310000
2021-02-16 06:00 12.50 424000 1310000 (2019) 502000 (2017) 964000 502000 575000 1020000 1300000 1310000
2021-02-16 05:00 12.44 423000 1310000 (2019) 502000 (2017) 964000 502000 575000 1020000 1300000 1310000
2021-02-16 04:00 12.41 422000 1310000 (2019) 502000 (2017) 964000 502000 575000 1020000 1300000 1310000
2021-02-16 03:00 12.41 422000 1310000 (2019) 502000 (2017) 964000 502000 575000 1020000 1300000 1310000
2021-02-16 02:00 12.39 422000 1310000 (2019) 502000 (2017) 964000 502000 575000 1020000 1300000 1310000
2021-02-16 01:00 12.38 421000 1310000 (2019) 502000 (2017) 964000 502000 575000 1020000 1300000 1310000
2021-02-16 00:00 12.43 423000 1310000 (2019) 502000 (2017) 964000 502000 575000 1020000 1300000 1310000
2021-02-15 23:00 12.40 422000 1280000 (2019) 522000 (2017) 949000 522000 585000 997000 1270000 1280000
2021-02-15 22:00 12.40 422000 1280000 (2019) 522000 (2017) 949000 522000 585000 997000 1270000 1280000
2021-02-15 21:00 12.38 421000 1280000 (2019) 522000 (2017) 949000 522000 585000 997000 1270000 1280000
2021-02-15 20:00 12.37 421000 1280000 (2019) 522000 (2017) 949000 522000 585000 997000 1270000 1280000
2021-02-15 19:00 12.33 420000 1280000 (2019) 522000 (2017) 949000 522000 585000 997000 1270000 1280000
2021-02-15 18:00 12.32 420000 1280000 (2019) 522000 (2017) 949000 522000 585000 997000 1270000 1280000
2021-02-15 17:00 12.33 420000 1280000 (2019) 522000 (2017) 949000 522000 585000 997000 1270000 1280000
2021-02-15 16:00 12.30 420000 1280000 (2019) 522000 (2017) 949000 522000 585000 997000 1270000 1280000
2021-02-15 15:00 12.30 420000 1280000 (2019) 522000 (2017) 949000 522000 585000 997000 1270000 1280000
2021-02-15 14:00 12.30 420000 1280000 (2019) 522000 (2017) 949000 522000 585000 997000 1270000 1280000
2021-02-15 13:00 12.28 419000 1280000 (2019) 522000 (2017) 949000 522000 585000 997000 1270000 1280000
2021-02-15 12:00 12.23 418000 1280000 (2019) 522000 (2017) 949000 522000 585000 997000 1270000 1280000
2021-02-15 11:00 12.22 418000 1280000 (2019) 522000 (2017) 949000 522000 585000 997000 1270000 1280000
2021-02-15 10:00 12.22 418000 1280000 (2019) 522000 (2017) 949000 522000 585000 997000 1270000 1280000
2021-02-15 09:00 12.18 417000 1280000 (2019) 522000 (2017) 949000 522000 585000 997000 1270000 1280000
2021-02-15 08:00 12.13 416000 1280000 (2019) 522000 (2017) 949000 522000 585000 997000 1270000 1280000
2021-02-15 07:00 12.16 416000 1280000 (2019) 522000 (2017) 949000 522000 585000 997000 1270000 1280000
2021-02-15 06:00 12.14 416000 1280000 (2019) 522000 (2017) 949000 522000 585000 997000 1270000 1280000
2021-02-15 05:00 12.16 416000 1280000 (2019) 522000 (2017) 949000 522000 585000 997000 1270000 1280000
2021-02-15 04:00 12.13 416000 1280000 (2019) 522000 (2017) 949000 522000 585000 997000 1270000 1280000
2021-02-15 03:00 12.12 416000 1280000 (2019) 522000 (2017) 949000 522000 585000 997000 1270000 1280000
2021-02-15 02:00 12.12 416000 1280000 (2019) 522000 (2017) 949000 522000 585000 997000 1270000 1280000
2021-02-15 01:00 12.07 414000 1280000 (2019) 522000 (2017) 949000 522000 585000 997000 1270000 1280000
2021-02-15 00:00 12.16 416000 1280000 (2019) 522000 (2017) 949000 522000 585000 997000 1270000 1280000
2021-02-14 23:00 12.11 415000 1260000 (2019) 522000 (2017) 926000 522000 577000 962000 1240000 1260000
2021-02-14 22:00 12.12 416000 1260000 (2019) 522000 (2017) 926000 522000 577000 962000 1240000 1260000
2021-02-14 21:00 12.10 415000 1260000 (2019) 522000 (2017) 926000 522000 577000 962000 1240000 1260000
2021-02-14 20:00 12.09 415000 1260000 (2019) 522000 (2017) 926000 522000 577000 962000 1240000 1260000
2021-02-14 19:00 12.06 414000 1260000 (2019) 522000 (2017) 926000 522000 577000 962000 1240000 1260000
2021-02-14 18:00 12.04 414000 1260000 (2019) 522000 (2017) 926000 522000 577000 962000 1240000 1260000
2021-02-14 17:00 12.09 415000 1260000 (2019) 522000 (2017) 926000 522000 577000 962000 1240000 1260000
2021-02-14 16:00 12.15 416000 1260000 (2019) 522000 (2017) 926000 522000 577000 962000 1240000 1260000
2021-02-14 15:00 12.05 414000 1260000 (2019) 522000 (2017) 926000 522000 577000 962000 1240000 1260000
2021-02-14 14:00 12.09 415000 1260000 (2019) 522000 (2017) 926000 522000 577000 962000 1240000 1260000
2021-02-14 13:00 12.15 416000 1260000 (2019) 522000 (2017) 926000 522000 577000 962000 1240000 1260000
2021-02-14 12:00 12.14 416000 1260000 (2019) 522000 (2017) 926000 522000 577000 962000 1240000 1260000
2021-02-14 11:00 12.14 416000 1260000 (2019) 522000 (2017) 926000 522000 577000 962000 1240000 1260000
2021-02-14 10:00 12.15 416000 1260000 (2019) 522000 (2017) 926000 522000 577000 962000 1240000 1260000
2021-02-14 09:00 12.16 416000 1260000 (2019) 522000 (2017) 926000 522000 577000 962000 1240000 1260000
2021-02-14 08:00 12.21 418000 1260000 (2019) 522000 (2017) 926000 522000 577000 962000 1240000 1260000
2021-02-14 07:00 12.21 418000 1260000 (2019) 522000 (2017) 926000 522000 577000 962000 1240000 1260000
2021-02-14 06:00 12.21 418000 1260000 (2019) 522000 (2017) 926000 522000 577000 962000 1240000 1260000
2021-02-14 05:00 12.21 418000 1260000 (2019) 522000 (2017) 926000 522000 577000 962000 1240000 1260000
2021-02-14 04:00 12.25 418000 1260000 (2019) 522000 (2017) 926000 522000 577000 962000 1240000 1260000
2021-02-14 03:00 12.25 418000 1260000 (2019) 522000 (2017) 926000 522000 577000 962000 1240000 1260000
2021-02-14 02:00 12.27 419000 1260000 (2019) 522000 (2017) 926000 522000 577000 962000 1240000 1260000
2021-02-14 01:00 12.31 420000 1260000 (2019) 522000 (2017) 926000 522000 577000 962000 1240000 1260000
2021-02-14 00:00 12.28 419000 1260000 (2019) 522000 (2017) 926000 522000 577000 962000 1240000 1260000
2021-02-13 23:00 12.32 420000 1220000 (2019) 513000 (2017) 888000 513000 557000 910000 1200000 1220000
2021-02-13 22:00 12.33 420000 1220000 (2019) 513000 (2017) 888000 513000 557000 910000 1200000 1220000
2021-02-13 21:00 12.37 421000 1220000 (2019) 513000 (2017) 888000 513000 557000 910000 1200000 1220000
2021-02-13 20:00 12.41 422000 1220000 (2019) 513000 (2017) 888000 513000 557000 910000 1200000 1220000
2021-02-13 19:00 12.38 421000 1220000 (2019) 513000 (2017) 888000 513000 557000 910000 1200000 1220000
2021-02-13 18:00 12.42 422000 1220000 (2019) 513000 (2017) 888000 513000 557000 910000 1200000 1220000
2021-02-13 17:00 12.47 423000 1220000 (2019) 513000 (2017) 888000 513000 557000 910000 1200000 1220000
2021-02-13 16:00 12.47 423000 1220000 (2019) 513000 (2017) 888000 513000 557000 910000 1200000 1220000
2021-02-13 15:00 12.49 424000 1220000 (2019) 513000 (2017) 888000 513000 557000 910000 1200000 1220000
2021-02-13 14:00 12.51 424000 1220000 (2019) 513000 (2017) 888000 513000 557000 910000 1200000 1220000
2021-02-13 13:00 12.52 425000 1220000 (2019) 513000 (2017) 888000 513000 557000 910000 1200000 1220000
2021-02-13 12:00 12.50 424000 1220000 (2019) 513000 (2017) 888000 513000 557000 910000 1200000 1220000
2021-02-13 11:00 12.55 425000 1220000 (2019) 513000 (2017) 888000 513000 557000 910000 1200000 1220000
2021-02-13 10:00 12.57 426000 1220000 (2019) 513000 (2017) 888000 513000 557000 910000 1200000 1220000
2021-02-13 09:00 12.59 426000 1220000 (2019) 513000 (2017) 888000 513000 557000 910000 1200000 1220000
2021-02-13 08:00 12.57 426000 1220000 (2019) 513000 (2017) 888000 513000 557000 910000 1200000 1220000
2021-02-13 07:00 12.62 427000 1220000 (2019) 513000 (2017) 888000 513000 557000 910000 1200000 1220000
2021-02-13 06:00 12.65 428000 1220000 (2019) 513000 (2017) 888000 513000 557000 910000 1200000 1220000
2021-02-13 05:00 12.69 429000 1220000 (2019) 513000 (2017) 888000 513000 557000 910000 1200000 1220000
2021-02-13 04:00 12.72 429000 1220000 (2019) 513000 (2017) 888000 513000 557000 910000 1200000 1220000
2021-02-13 03:00 12.74 430000 1220000 (2019) 513000 (2017) 888000 513000 557000 910000 1200000 1220000
2021-02-13 02:00 12.73 429000 1220000 (2019) 513000 (2017) 888000 513000 557000 910000 1200000 1220000
2021-02-13 01:00 12.70 429000 1220000 (2019) 513000 (2017) 888000 513000 557000 910000 1200000 1220000
2021-02-13 00:00 12.74 430000 1220000 (2019) 513000 (2017) 888000 513000 557000 910000 1200000 1220000
2021-02-12 23:00 12.84 432000 1180000 (2019) 511000 (2017) 847000 511000 537000 849000 1160000 1180000
2021-02-12 22:00 12.88 433000 1180000 (2019) 511000 (2017) 847000 511000 537000 849000 1160000 1180000
2021-02-12 21:00 12.87 433000 1180000 (2019) 511000 (2017) 847000 511000 537000 849000 1160000 1180000
2021-02-12 20:00 12.91 434000 1180000 (2019) 511000 (2017) 847000 511000 537000 849000 1160000 1180000
2021-02-12 19:00 12.98 435000 1180000 (2019) 511000 (2017) 847000 511000 537000 849000 1160000 1180000
2021-02-12 18:00 12.97 435000 1180000 (2019) 511000 (2017) 847000 511000 537000 849000 1160000 1180000
2021-02-12 17:00 12.99 436000 1180000 (2019) 511000 (2017) 847000 511000 537000 849000 1160000 1180000
2021-02-12 16:00 13.10 438000 1180000 (2019) 511000 (2017) 847000 511000 537000 849000 1160000 1180000
2021-02-12 15:00 13.14 439000 1180000 (2019) 511000 (2017) 847000 511000 537000 849000 1160000 1180000
2021-02-12 14:00 13.18 440000 1180000 (2019) 511000 (2017) 847000 511000 537000 849000 1160000 1180000
2021-02-12 13:00 13.20 440000 1180000 (2019) 511000 (2017) 847000 511000 537000 849000 1160000 1180000
2021-02-12 12:00 13.29 443000 1180000 (2019) 511000 (2017) 847000 511000 537000 849000 1160000 1180000
2021-02-12 11:00 13.34 444000 1180000 (2019) 511000 (2017) 847000 511000 537000 849000 1160000 1180000
2021-02-12 10:00 13.41 445000 1180000 (2019) 511000 (2017) 847000 511000 537000 849000 1160000 1180000
2021-02-12 09:00 13.47 447000 1180000 (2019) 511000 (2017) 847000 511000 537000 849000 1160000 1180000
2021-02-12 08:00 13.56 449000 1180000 (2019) 511000 (2017) 847000 511000 537000 849000 1160000 1180000
2021-02-12 07:00 13.64 451000 1180000 (2019) 511000 (2017) 847000 511000 537000 849000 1160000 1180000
2021-02-12 06:00 13.69 452000 1180000 (2019) 511000 (2017) 847000 511000 537000 849000 1160000 1180000
2021-02-12 05:00 13.79 454000 1180000 (2019) 511000 (2017) 847000 511000 537000 849000 1160000 1180000
2021-02-12 04:00 13.86 456000 1180000 (2019) 511000 (2017) 847000 511000 537000 849000 1160000 1180000
2021-02-12 03:00 13.91 457000 1180000 (2019) 511000 (2017) 847000 511000 537000 849000 1160000 1180000
2021-02-12 02:00 14.00 459000 1180000 (2019) 511000 (2017) 847000 511000 537000 849000 1160000 1180000
2021-02-12 01:00 14.11 462000 1180000 (2019) 511000 (2017) 847000 511000 537000 849000 1160000 1180000
2021-02-12 00:00 14.18 464000 1180000 (2019) 511000 (2017) 847000 511000 537000 849000 1160000 1180000
2021-02-11 23:00 14.24 465000 1130000 (2019) 497000 (2017) 802000 497000 510000 790000 1110000 1130000
2021-02-11 22:00 14.30 467000 1130000 (2019) 497000 (2017) 802000 497000 510000 790000 1110000 1130000
2021-02-11 21:00 14.38 468000 1130000 (2019) 497000 (2017) 802000 497000 510000 790000 1110000 1130000
2021-02-11 20:00 14.46 470000 1130000 (2019) 497000 (2017) 802000 497000 510000 790000 1110000 1130000
2021-02-11 19:00 14.54 472000 1130000 (2019) 497000 (2017) 802000 497000 510000 790000 1110000 1130000
2021-02-11 18:00 14.61 474000 1130000 (2019) 497000 (2017) 802000 497000 510000 790000 1110000 1130000
2021-02-11 17:00 14.66 475000 1130000 (2019) 497000 (2017) 802000 497000 510000 790000 1110000 1130000
2021-02-11 16:00 14.73 477000 1130000 (2019) 497000 (2017) 802000 497000 510000 790000 1110000 1130000
2021-02-11 15:00 14.74 477000 1130000 (2019) 497000 (2017) 802000 497000 510000 790000 1110000 1130000
2021-02-11 14:00 14.76 478000 1130000 (2019) 497000 (2017) 802000 497000 510000 790000 1110000 1130000
2021-02-11 13:00 14.80 479000 1130000 (2019) 497000 (2017) 802000 497000 510000 790000 1110000 1130000
2021-02-10 18:00 15.87 505000 1070000 (2019) 478000 (2018) 752000 478000 479000 730000 1050000 1070000
2021-02-10 17:00 15.92 506000 1070000 (2019) 478000 (2018) 752000 478000 479000 730000 1050000 1070000
2021-02-10 16:00 15.97 508000 1070000 (2019) 478000 (2018) 752000 478000 479000 730000 1050000 1070000
2021-02-10 15:00 16.01 509000 1070000 (2019) 478000 (2018) 752000 478000 479000 730000 1050000 1070000
2021-02-10 14:00 16.08 510000 1070000 (2019) 478000 (2018) 752000 478000 479000 730000 1050000 1070000
2021-02-10 13:00 16.13 512000 1070000 (2019) 478000 (2018) 752000 478000 479000 730000 1050000 1070000
2021-02-10 12:00 16.19 513000 1070000 (2019) 478000 (2018) 752000 478000 479000 730000 1050000 1070000
2021-02-10 11:00 16.25 515000 1070000 (2019) 478000 (2018) 752000 478000 479000 730000 1050000 1070000
2021-02-10 10:00 16.31 516000 1070000 (2019) 478000 (2018) 752000 478000 479000 730000 1050000 1070000
2021-02-10 09:00 16.32 516000 1070000 (2019) 478000 (2018) 752000 478000 479000 730000 1050000 1070000
2021-02-10 08:00 16.45 520000 1070000 (2019) 478000 (2018) 752000 478000 479000 730000 1050000 1070000
2021-02-10 07:00 16.48 521000 1070000 (2019) 478000 (2018) 752000 478000 479000 730000 1050000 1070000
2021-02-10 06:00 16.54 522000 1070000 (2019) 478000 (2018) 752000 478000 479000 730000 1050000 1070000
2021-02-10 05:00 16.61 524000 1070000 (2019) 478000 (2018) 752000 478000 479000 730000 1050000 1070000
2021-02-10 04:00 16.67 525000 1070000 (2019) 478000 (2018) 752000 478000 479000 730000 1050000 1070000
2021-02-10 03:00 16.72 527000 1070000 (2019) 478000 (2018) 752000 478000 479000 730000 1050000 1070000
2021-02-10 02:00 16.81 529000 1070000 (2019) 478000 (2018) 752000 478000 479000 730000 1050000 1070000
2021-02-10 01:00 16.78 528000 1070000 (2019) 478000 (2018) 752000 478000 479000 730000 1050000 1070000
2021-02-10 00:00 16.90 531000 1070000 (2019) 478000 (2018) 752000 478000 479000 730000 1050000 1070000
2021-02-09 23:00 16.99 534000 1000000 (2019) 415000 (2018) 704000 415000 430000 701000 981000 1000000
2021-02-09 22:00 17.01 534000 1000000 (2019) 415000 (2018) 704000 415000 430000 701000 981000 1000000
2021-02-09 21:00 17.03 535000 1000000 (2019) 415000 (2018) 704000 415000 430000 701000 981000 1000000
2021-02-09 20:00 17.11 537000 1000000 (2019) 415000 (2018) 704000 415000 430000 701000 981000 1000000
2021-02-09 19:00 17.24 540000 1000000 (2019) 415000 (2018) 704000 415000 430000 701000 981000 1000000
2021-02-09 18:00 17.27 541000 1000000 (2019) 415000 (2018) 704000 415000 430000 701000 981000 1000000
2021-02-09 17:00 17.30 542000 1000000 (2019) 415000 (2018) 704000 415000 430000 701000 981000 1000000
2021-02-09 16:00 17.40 544000 1000000 (2019) 415000 (2018) 704000 415000 430000 701000 981000 1000000
2021-02-09 15:00 17.47 546000 1000000 (2019) 415000 (2018) 704000 415000 430000 701000 981000 1000000
2021-02-09 14:00 17.52 547000 1000000 (2019) 415000 (2018) 704000 415000 430000 701000 981000 1000000
2021-02-09 13:00 17.61 550000 1000000 (2019) 415000 (2018) 704000 415000 430000 701000 981000 1000000
2021-02-09 12:00 17.64 550000 1000000 (2019) 415000 (2018) 704000 415000 430000 701000 981000 1000000
2021-02-09 11:00 17.66 551000 1000000 (2019) 415000 (2018) 704000 415000 430000 701000 981000 1000000
2021-02-09 10:00 17.75 553000 1000000 (2019) 415000 (2018) 704000 415000 430000 701000 981000 1000000
2021-02-09 09:00 17.89 557000 1000000 (2019) 415000 (2018) 704000 415000 430000 701000 981000 1000000
2021-02-09 08:00 17.93 558000 1000000 (2019) 415000 (2018) 704000 415000 430000 701000 981000 1000000
2021-02-09 07:00 17.98 559000 1000000 (2019) 415000 (2018) 704000 415000 430000 701000 981000 1000000
2021-02-09 06:00 18.04 561000 1000000 (2019) 415000 (2018) 704000 415000 430000 701000 981000 1000000
2021-02-09 05:00 18.14 564000 1000000 (2019) 415000 (2018) 704000 415000 430000 701000 981000 1000000
2021-02-09 04:00 18.23 566000 1000000 (2019) 415000 (2018) 704000 415000 430000 701000 981000 1000000
2021-02-09 03:00 18.26 567000 1000000 (2019) 415000 (2018) 704000 415000 430000 701000 981000 1000000
2021-02-09 02:00 18.34 569000 1000000 (2019) 415000 (2018) 704000 415000 430000 701000 981000 1000000
2021-02-09 01:00 18.41 571000 1000000 (2019) 415000 (2018) 704000 415000 430000 701000 981000 1000000
2021-02-09 00:00 18.50 573000 1000000 (2019) 415000 (2018) 704000 415000 430000 701000 981000 1000000
2021-02-08 23:00 18.61 576000 925000 (2019) 390000 (2018) 667000 390000 415000 677000 910000 925000
2021-02-08 22:00 18.64 577000 925000 (2019) 390000 (2018) 667000 390000 415000 677000 910000 925000
2021-02-08 21:00 18.78 581000 925000 (2019) 390000 (2018) 667000 390000 415000 677000 910000 925000
2021-02-08 20:00 18.87 583000 925000 (2019) 390000 (2018) 667000 390000 415000 677000 910000 925000
2021-02-08 19:00 18.85 583000 925000 (2019) 390000 (2018) 667000 390000 415000 677000 910000 925000
2021-02-08 18:00 18.98 586000 925000 (2019) 390000 (2018) 667000 390000 415000 677000 910000 925000
2021-02-08 17:00 19.06 589000 925000 (2019) 390000 (2018) 667000 390000 415000 677000 910000 925000
2021-02-08 16:00 19.15 591000 925000 (2019) 390000 (2018) 667000 390000 415000 677000 910000 925000
2021-02-08 15:00 19.24 594000 925000 (2019) 390000 (2018) 667000 390000 415000 677000 910000 925000
2021-02-08 14:00 19.34 597000 925000 (2019) 390000 (2018) 667000 390000 415000 677000 910000 925000
2021-02-08 13:00 19.41 599000 925000 (2019) 390000 (2018) 667000 390000 415000 677000 910000 925000
2021-02-08 12:00 19.49 601000 925000 (2019) 390000 (2018) 667000 390000 415000 677000 910000 925000
2021-02-08 11:00 19.56 603000 925000 (2019) 390000 (2018) 667000 390000 415000 677000 910000 925000
2021-02-08 10:00 19.54 603000 925000 (2019) 390000 (2018) 667000 390000 415000 677000 910000 925000
2021-02-08 09:00 19.70 607000 925000 (2019) 390000 (2018) 667000 390000 415000 677000 910000 925000
2021-02-08 08:00 19.73 608000 925000 (2019) 390000 (2018) 667000 390000 415000 677000 910000 925000
2021-02-08 07:00 19.75 609000 925000 (2019) 390000 (2018) 667000 390000 415000 677000 910000 925000
2021-02-08 06:00 19.90 613000 925000 (2019) 390000 (2018) 667000 390000 415000 677000 910000 925000
2021-02-08 05:00 19.97 616000 925000 (2019) 390000 (2018) 667000 390000 415000 677000 910000 925000
2021-02-08 04:00 20.04 618000 925000 (2019) 390000 (2018) 667000 390000 415000 677000 910000 925000
2021-02-08 03:00 20.05 618000 925000 (2019) 390000 (2018) 667000 390000 415000 677000 910000 925000
2021-02-08 02:00 20.13 620000 925000 (2019) 390000 (2018) 667000 390000 415000 677000 910000 925000
2021-02-08 01:00 20.21 623000 925000 (2019) 390000 (2018) 667000 390000 415000 677000 910000 925000
2021-02-08 00:00 20.25 624000 925000 (2019) 390000 (2018) 667000 390000 415000 677000 910000 925000
2021-02-07 23:00 20.31 626000 896000 (2019) 403000 (2018) 656000 403000 432000 663000 874000 896000
2021-02-07 22:00 20.39 628000 896000 (2019) 403000 (2018) 656000 403000 432000 663000 874000 896000
2021-02-07 21:00 20.45 630000 896000 (2019) 403000 (2018) 656000 403000 432000 663000 874000 896000
2021-02-07 20:00 20.47 631000 896000 (2019) 403000 (2018) 656000 403000 432000 663000 874000 896000
2021-02-07 19:00 20.53 633000 896000 (2019) 403000 (2018) 656000 403000 432000 663000 874000 896000
2021-02-07 18:00 20.57 634000 896000 (2019) 403000 (2018) 656000 403000 432000 663000 874000 896000
2021-02-07 17:00 20.56 633000 896000 (2019) 403000 (2018) 656000 403000 432000 663000 874000 896000
2021-02-07 16:00 20.67 637000 896000 (2019) 403000 (2018) 656000 403000 432000 663000 874000 896000
2021-02-07 15:00 20.71 638000 896000 (2019) 403000 (2018) 656000 403000 432000 663000 874000 896000
2021-02-07 14:00 20.72 638000 896000 (2019) 403000 (2018) 656000 403000 432000 663000 874000 896000
2021-02-07 13:00 20.74 639000 896000 (2019) 403000 (2018) 656000 403000 432000 663000 874000 896000
2021-02-07 12:00 20.76 640000 896000 (2019) 403000 (2018) 656000 403000 432000 663000 874000 896000
2021-02-07 11:00 20.81 641000 896000 (2019) 403000 (2018) 656000 403000 432000 663000 874000 896000
2021-02-07 10:00 20.84 642000 896000 (2019) 403000 (2018) 656000 403000 432000 663000 874000 896000
2021-02-07 09:00 20.88 643000 896000 (2019) 403000 (2018) 656000 403000 432000 663000 874000 896000
2021-02-07 08:00 20.91 644000 896000 (2019) 403000 (2018) 656000 403000 432000 663000 874000 896000
2021-02-07 07:00 20.95 645000 896000 (2019) 403000 (2018) 656000 403000 432000 663000 874000 896000
2021-02-07 06:00 20.99 647000 896000 (2019) 403000 (2018) 656000 403000 432000 663000 874000 896000
2021-02-07 05:00 21.01 647000 896000 (2019) 403000 (2018) 656000 403000 432000 663000 874000 896000
2021-02-07 04:00 21.03 648000 896000 (2019) 403000 (2018) 656000 403000 432000 663000 874000 896000
2021-02-07 03:00 21.05 648000 896000 (2019) 403000 (2018) 656000 403000 432000 663000 874000 896000
2021-02-07 02:00 21.05 648000 896000 (2019) 403000 (2018) 656000 403000 432000 663000 874000 896000
2021-02-07 01:00 21.09 650000 896000 (2019) 403000 (2018) 656000 403000 432000 663000 874000 896000
2021-02-07 00:00 21.12 651000 896000 (2019) 403000 (2018) 656000 403000 432000 663000 874000 896000
2021-02-06 23:00 21.14 651000 944000 (2019) 424000 (2018) 677000 424000 461000 671000 901000 944000
2021-02-06 22:00 21.14 651000 944000 (2019) 424000 (2018) 677000 424000 461000 671000 901000 944000
2021-02-06 21:00 21.16 652000 944000 (2019) 424000 (2018) 677000 424000 461000 671000 901000 944000
2021-02-06 20:00 21.18 653000 944000 (2019) 424000 (2018) 677000 424000 461000 671000 901000 944000
2021-02-06 19:00 21.17 652000 944000 (2019) 424000 (2018) 677000 424000 461000 671000 901000 944000
2021-02-06 18:00 21.20 653000 944000 (2019) 424000 (2018) 677000 424000 461000 671000 901000 944000
2021-02-06 17:00 21.18 653000 944000 (2019) 424000 (2018) 677000 424000 461000 671000 901000 944000
2021-02-06 16:00 21.24 654000 944000 (2019) 424000 (2018) 677000 424000 461000 671000 901000 944000
2021-02-06 15:00 21.23 654000 944000 (2019) 424000 (2018) 677000 424000 461000 671000 901000 944000
2021-02-06 14:00 21.26 655000 944000 (2019) 424000 (2018) 677000 424000 461000 671000 901000 944000
2021-02-06 13:00 21.31 657000 944000 (2019) 424000 (2018) 677000 424000 461000 671000 901000 944000
2021-02-06 12:00 21.31 657000 944000 (2019) 424000 (2018) 677000 424000 461000 671000 901000 944000
2021-02-06 11:00 21.32 657000 944000 (2019) 424000 (2018) 677000 424000 461000 671000 901000 944000
2021-02-06 10:00 21.25 655000 944000 (2019) 424000 (2018) 677000 424000 461000 671000 901000 944000
2021-02-06 09:00 21.30 656000 944000 (2019) 424000 (2018) 677000 424000 461000 671000 901000 944000
2021-02-06 08:00 21.27 655000 944000 (2019) 424000 (2018) 677000 424000 461000 671000 901000 944000
2021-02-06 07:00 21.28 656000 944000 (2019) 424000 (2018) 677000 424000 461000 671000 901000 944000
2021-02-06 06:00 21.27 655000 944000 (2019) 424000 (2018) 677000 424000 461000 671000 901000 944000
2021-02-06 05:00 21.29 656000 944000 (2019) 424000 (2018) 677000 424000 461000 671000 901000 944000
2021-02-06 04:00 21.32 657000 944000 (2019) 424000 (2018) 677000 424000 461000 671000 901000 944000
2021-02-06 03:00 21.31 657000 944000 (2019) 424000 (2018) 677000 424000 461000 671000 901000 944000
2021-02-06 02:00 21.31 657000 944000 (2019) 424000 (2018) 677000 424000 461000 671000 901000 944000
2021-02-06 01:00 21.31 657000 944000 (2019) 424000 (2018) 677000 424000 461000 671000 901000 944000
2021-02-06 00:00 21.29 656000 944000 (2019) 424000 (2018) 677000 424000 461000 671000 901000 944000
2021-02-05 23:00 21.32 657000 1000000 (2019) 442000 (2018) 714000 442000 493000 706000 942000 1000000
2021-02-05 22:00 21.32 657000 1000000 (2019) 442000 (2018) 714000 442000 493000 706000 942000 1000000
2021-02-05 21:00 21.27 655000 1000000 (2019) 442000 (2018) 714000 442000 493000 706000 942000 1000000
2021-02-05 20:00 21.26 655000 1000000 (2019) 442000 (2018) 714000 442000 493000 706000 942000 1000000
2021-02-05 19:00 21.30 656000 1000000 (2019) 442000 (2018) 714000 442000 493000 706000 942000 1000000
2021-02-05 18:00 21.32 657000 1000000 (2019) 442000 (2018) 714000 442000 493000 706000 942000 1000000
2021-02-05 17:00 21.24 654000 1000000 (2019) 442000 (2018) 714000 442000 493000 706000 942000 1000000
2021-02-05 16:00 21.23 654000 1000000 (2019) 442000 (2018) 714000 442000 493000 706000 942000 1000000
2021-02-05 15:00 21.21 653000 1000000 (2019) 442000 (2018) 714000 442000 493000 706000 942000 1000000
2021-02-05 14:00 21.25 655000 1000000 (2019) 442000 (2018) 714000 442000 493000 706000 942000 1000000
2021-02-05 13:00 21.26 655000 1000000 (2019) 442000 (2018) 714000 442000 493000 706000 942000 1000000
2021-02-05 12:00 21.22 654000 1000000 (2019) 442000 (2018) 714000 442000 493000 706000 942000 1000000
2021-02-05 11:00 21.24 654000 1000000 (2019) 442000 (2018) 714000 442000 493000 706000 942000 1000000
2021-02-05 10:00 21.30 656000 1000000 (2019) 442000 (2018) 714000 442000 493000 706000 942000 1000000
2021-02-05 09:00 21.23 654000 1000000 (2019) 442000 (2018) 714000 442000 493000 706000 942000 1000000
2021-02-05 08:00 21.30 656000 1000000 (2019) 442000 (2018) 714000 442000 493000 706000 942000 1000000
2021-02-05 07:00 21.25 655000 1000000 (2019) 442000 (2018) 714000 442000 493000 706000 942000 1000000
2021-02-05 06:00 21.31 657000 1000000 (2019) 442000 (2018) 714000 442000 493000 706000 942000 1000000
2021-02-05 05:00 21.31 657000 1000000 (2019) 442000 (2018) 714000 442000 493000 706000 942000 1000000
2021-02-05 04:00 21.28 656000 1000000 (2019) 442000 (2018) 714000 442000 493000 706000 942000 1000000
2021-02-05 03:00 21.33 657000 1000000 (2019) 442000 (2018) 714000 442000 493000 706000 942000 1000000
2021-02-05 02:00 21.35 658000 1000000 (2019) 442000 (2018) 714000 442000 493000 706000 942000 1000000
2021-02-05 01:00 21.36 658000 1000000 (2019) 442000 (2018) 714000 442000 493000 706000 942000 1000000
2021-02-05 00:00 21.34 657000 1000000 (2019) 442000 (2018) 714000 442000 493000 706000 942000 1000000
2021-02-04 23:00 21.34 657000 1040000 (2019) 470000 (2018) 756000 470000 538000 758000 974000 1040000
2021-02-04 22:00 21.37 658000 1040000 (2019) 470000 (2018) 756000 470000 538000 758000 974000 1040000
2021-02-04 21:00 21.28 656000 1040000 (2019) 470000 (2018) 756000 470000 538000 758000 974000 1040000
2021-02-04 20:00 21.28 656000 1040000 (2019) 470000 (2018) 756000 470000 538000 758000 974000 1040000
2021-02-04 19:00 21.31 657000 1040000 (2019) 470000 (2018) 756000 470000 538000 758000 974000 1040000
2021-02-04 18:00 21.32 657000 1040000 (2019) 470000 (2018) 756000 470000 538000 758000 974000 1040000
2021-02-04 17:00 21.40 659000 1040000 (2019) 470000 (2018) 756000 470000 538000 758000 974000 1040000
2021-02-04 16:00 21.47 662000 1040000 (2019) 470000 (2018) 756000 470000 538000 758000 974000 1040000
2021-02-04 15:00 21.50 662000 1040000 (2019) 470000 (2018) 756000 470000 538000 758000 974000 1040000
2021-02-04 14:00 21.50 662000 1040000 (2019) 470000 (2018) 756000 470000 538000 758000 974000 1040000
2021-02-04 13:00 21.54 664000 1040000 (2019) 470000 (2018) 756000 470000 538000 758000 974000 1040000
2021-02-04 12:00 21.55 664000 1040000 (2019) 470000 (2018) 756000 470000 538000 758000 974000 1040000
2021-02-04 11:00 21.61 666000 1040000 (2019) 470000 (2018) 756000 470000 538000 758000 974000 1040000
2021-02-04 10:00 21.68 668000 1040000 (2019) 470000 (2018) 756000 470000 538000 758000 974000 1040000
2021-02-04 09:00 21.67 668000 1040000 (2019) 470000 (2018) 756000 470000 538000 758000 974000 1040000
2021-02-04 08:00 21.70 669000 1040000 (2019) 470000 (2018) 756000 470000 538000 758000 974000 1040000
2021-02-04 07:00 21.67 668000 1040000 (2019) 470000 (2018) 756000 470000 538000 758000 974000 1040000
2021-02-04 06:00 21.69 668000 1040000 (2019) 470000 (2018) 756000 470000 538000 758000 974000 1040000
2021-02-04 05:00 21.75 670000 1040000 (2019) 470000 (2018) 756000 470000 538000 758000 974000 1040000
2021-02-04 04:00 21.82 673000 1040000 (2019) 470000 (2018) 756000 470000 538000 758000 974000 1040000
2021-02-04 03:00 21.85 673000 1040000 (2019) 470000 (2018) 756000 470000 538000 758000 974000 1040000
2021-02-04 02:00 21.87 674000 1040000 (2019) 470000 (2018) 756000 470000 538000 758000 974000 1040000
2021-02-04 01:00 21.92 676000 1040000 (2019) 470000 (2018) 756000 470000 538000 758000 974000 1040000
2021-02-04 00:00 21.93 676000 1040000 (2019) 470000 (2018) 756000 470000 538000 758000 974000 1040000
2021-02-03 23:00 21.96 677000 1050000 (2019) 489000 (2018) 794000 489000 569000 820000 995000 1050000
2021-02-03 22:00 22.03 679000 1050000 (2019) 489000 (2018) 794000 489000 569000 820000 995000 1050000
2021-02-03 21:00 22.03 679000 1050000 (2019) 489000 (2018) 794000 489000 569000 820000 995000 1050000
2021-02-03 20:00 22.09 681000 1050000 (2019) 489000 (2018) 794000 489000 569000 820000 995000 1050000
2021-02-03 19:00 22.10 681000 1050000 (2019) 489000 (2018) 794000 489000 569000 820000 995000 1050000
2021-02-03 18:00 22.13 682000 1050000 (2019) 489000 (2018) 794000 489000 569000 820000 995000 1050000
2021-02-03 17:00 22.17 684000 1050000 (2019) 489000 (2018) 794000 489000 569000 820000 995000 1050000
2021-02-03 16:00 22.19 684000 1050000 (2019) 489000 (2018) 794000 489000 569000 820000 995000 1050000
2021-02-03 15:00 22.17 684000 1050000 (2019) 489000 (2018) 794000 489000 569000 820000 995000 1050000
2021-02-03 14:00 22.21 685000 1050000 (2019) 489000 (2018) 794000 489000 569000 820000 995000 1050000
2021-02-03 13:00 22.22 685000 1050000 (2019) 489000 (2018) 794000 489000 569000 820000 995000 1050000
2021-02-03 12:00 22.28 687000 1050000 (2019) 489000 (2018) 794000 489000 569000 820000 995000 1050000
2021-02-03 11:00 22.35 689000 1050000 (2019) 489000 (2018) 794000 489000 569000 820000 995000 1050000
2021-02-03 10:00 22.35 689000 1050000 (2019) 489000 (2018) 794000 489000 569000 820000 995000 1050000
2021-02-03 09:00 22.33 689000 1050000 (2019) 489000 (2018) 794000 489000 569000 820000 995000 1050000
2021-02-03 08:00 22.32 688000 1050000 (2019) 489000 (2018) 794000 489000 569000 820000 995000 1050000
2021-02-03 07:00 22.31 688000 1050000 (2019) 489000 (2018) 794000 489000 569000 820000 995000 1050000
2021-02-03 06:00 22.36 690000 1050000 (2019) 489000 (2018) 794000 489000 569000 820000 995000 1050000
2021-02-03 05:00 22.33 689000 1050000 (2019) 489000 (2018) 794000 489000 569000 820000 995000 1050000
2021-02-03 04:00 22.38 690000 1050000 (2019) 489000 (2018) 794000 489000 569000 820000 995000 1050000
2021-02-03 03:00 22.35 689000 1050000 (2019) 489000 (2018) 794000 489000 569000 820000 995000 1050000
2021-02-03 02:00 22.36 690000 1050000 (2019) 489000 (2018) 794000 489000 569000 820000 995000 1050000
2021-02-03 01:00 22.38 690000 1050000 (2019) 489000 (2018) 794000 489000 569000 820000 995000 1050000
2021-02-03 00:00 22.34 689000 1050000 (2019) 489000 (2018) 794000 489000 569000 820000 995000 1050000
2021-02-02 23:00 22.37 690000 1050000 (2019) 493000 (2018) 817000 493000 579000 863000 1010000 1050000
2021-02-02 22:00 22.35 689000 1050000 (2019) 493000 (2018) 817000 493000 579000 863000 1010000 1050000
2021-02-02 21:00 22.35 689000 1050000 (2019) 493000 (2018) 817000 493000 579000 863000 1010000 1050000
2021-02-02 20:00 22.34 689000 1050000 (2019) 493000 (2018) 817000 493000 579000 863000 1010000 1050000
2021-02-02 19:00 22.30 688000 1050000 (2019) 493000 (2018) 817000 493000 579000 863000 1010000 1050000
2021-02-02 18:00 22.28 687000 1050000 (2019) 493000 (2018) 817000 493000 579000 863000 1010000 1050000
2021-02-02 17:00 22.26 686000 1050000 (2019) 493000 (2018) 817000 493000 579000 863000 1010000 1050000
2021-02-02 16:00 22.24 686000 1050000 (2019) 493000 (2018) 817000 493000 579000 863000 1010000 1050000
2021-02-02 15:00 22.16 683000 1050000 (2019) 493000 (2018) 817000 493000 579000 863000 1010000 1050000
2021-02-02 14:00 22.17 684000 1050000 (2019) 493000 (2018) 817000 493000 579000 863000 1010000 1050000
2021-02-02 13:00 22.16 683000 1050000 (2019) 493000 (2018) 817000 493000 579000 863000 1010000 1050000
2021-02-02 12:00 22.13 682000 1050000 (2019) 493000 (2018) 817000 493000 579000 863000 1010000 1050000
2021-02-02 11:00 22.12 682000 1050000 (2019) 493000 (2018) 817000 493000 579000 863000 1010000 1050000
2021-02-02 10:00 22.05 680000 1050000 (2019) 493000 (2018) 817000 493000 579000 863000 1010000 1050000
2021-02-02 09:00 22.07 680000 1050000 (2019) 493000 (2018) 817000 493000 579000 863000 1010000 1050000
2021-02-02 08:00 22.00 678000 1050000 (2019) 493000 (2018) 817000 493000 579000 863000 1010000 1050000
2021-02-02 07:00 21.96 677000 1050000 (2019) 493000 (2018) 817000 493000 579000 863000 1010000 1050000
2021-02-02 06:00 21.94 676000 1050000 (2019) 493000 (2018) 817000 493000 579000 863000 1010000 1050000
2021-02-02 05:00 21.92 676000 1050000 (2019) 493000 (2018) 817000 493000 579000 863000 1010000 1050000
2021-02-02 04:00 21.87 674000 1050000 (2019) 493000 (2018) 817000 493000 579000 863000 1010000 1050000
2021-02-02 03:00 21.85 673000 1050000 (2019) 493000 (2018) 817000 493000 579000 863000 1010000 1050000
2021-02-02 02:00 21.83 673000 1050000 (2019) 493000 (2018) 817000 493000 579000 863000 1010000 1050000
2021-02-02 01:00 21.78 671000 1050000 (2019) 493000 (2018) 817000 493000 579000 863000 1010000 1050000
2021-02-02 00:00 21.73 670000 1050000 (2019) 493000 (2018) 817000 493000 579000 863000 1010000 1050000
2021-02-01 23:00 21.71 669000 1050000 (2019) 497000 (2018) 831000 497000 589000 887000 1020000 1050000
2021-02-01 22:00 21.67 668000 1050000 (2019) 497000 (2018) 831000 497000 589000 887000 1020000 1050000
2021-02-01 21:00 21.63 667000 1050000 (2019) 497000 (2018) 831000 497000 589000 887000 1020000 1050000
2021-02-01 20:00 21.57 665000 1050000 (2019) 497000 (2018) 831000 497000 589000 887000 1020000 1050000
2021-02-01 19:00 21.53 663000 1050000 (2019) 497000 (2018) 831000 497000 589000 887000 1020000 1050000
2021-02-01 18:00 21.49 662000 1050000 (2019) 497000 (2018) 831000 497000 589000 887000 1020000 1050000
2021-02-01 17:00 21.39 659000 1050000 (2019) 497000 (2018) 831000 497000 589000 887000 1020000 1050000
2021-02-01 16:00 21.40 659000 1050000 (2019) 497000 (2018) 831000 497000 589000 887000 1020000 1050000
2021-02-01 15:00 21.34 657000 1050000 (2019) 497000 (2018) 831000 497000 589000 887000 1020000 1050000
2021-02-01 14:00 21.33 657000 1050000 (2019) 497000 (2018) 831000 497000 589000 887000 1020000 1050000
2021-02-01 13:00 21.24 654000 1050000 (2019) 497000 (2018) 831000 497000 589000 887000 1020000 1050000
2021-02-01 12:00 21.20 653000 1050000 (2019) 497000 (2018) 831000 497000 589000 887000 1020000 1050000
2021-02-01 11:00 21.18 653000 1050000 (2019) 497000 (2018) 831000 497000 589000 887000 1020000 1050000
2021-02-01 10:00 21.15 652000 1050000 (2019) 497000 (2018) 831000 497000 589000 887000 1020000 1050000
2021-02-01 09:00 21.10 650000 1050000 (2019) 497000 (2018) 831000 497000 589000 887000 1020000 1050000
2021-02-01 08:00 21.02 648000 1050000 (2019) 497000 (2018) 831000 497000 589000 887000 1020000 1050000
2021-02-01 07:00 21.01 647000 1050000 (2019) 497000 (2018) 831000 497000 589000 887000 1020000 1050000
2021-02-01 06:00 20.96 646000 1050000 (2019) 497000 (2018) 831000 497000 589000 887000 1020000 1050000
2021-02-01 05:00 20.95 645000 1050000 (2019) 497000 (2018) 831000 497000 589000 887000 1020000 1050000
2021-02-01 04:00 20.86 643000 1050000 (2019) 497000 (2018) 831000 497000 589000 887000 1020000 1050000
2021-02-01 03:00 20.83 642000 1050000 (2019) 497000 (2018) 831000 497000 589000 887000 1020000 1050000
2021-02-01 02:00 20.75 639000 1050000 (2019) 497000 (2018) 831000 497000 589000 887000 1020000 1050000
2021-02-01 01:00 20.75 639000 1050000 (2019) 497000 (2018) 831000 497000 589000 887000 1020000 1050000
2021-02-01 00:00 20.68 637000 1050000 (2019) 497000 (2018) 831000 497000 589000 887000 1020000 1050000

A total of 699 rows are displayed for years 2017 through 2020.